Главная страница
METAR-TAF:

METAR-TAF

Аэропорты :

Каструп

Копенгаген, Дания

широта: 55-37N, долгота: 012-39E, высота над уровнем моря: 5 м

Текущие метеонаблюдения

Эта сводка был подготовлена 19 минут назад, в 03:20 UTC
Ветер 9 Узел от северо-западный
Температура 17°C
Влажность 82%
Давление 1012 hPa
Видимость 10 км и более
небольшая облачность на высоте 1400 фута
Рассеянная облачность на высоте 5100 фута
Рассеянная облачность на высоте 18000 фута

METAR: EKCH 150320Z 31009KT 9999 FEW014 BKN051 BKN180 17/14 Q1012 NOSIG

Время: 05:39 (03:39 UTC)

Прогноз

Эта сводка был подготовлена 4 часа и 39 минут назад, в 23:00 UTC
Прогноз действительный с 15-го 00 UTC до 15-го 24 UTC
Ветер 8 Узел от западный
Видимость 10 км и более
Отдельные облака на высоте 2000 фута
временами
С 15-го 00 UTC до 15-го 06 UTC
Рассеянная облачность на высоте 1200 фута

TAF: EKCH 142300Z 1500/1524 28008KT 9999 SCT020 TEMPO 1500/1506 BKN012

Метеонаблюдения и прогнозы для более 4000 аэропортов (сводки METAR и TAF).

Имеющиеся станции представлены на карте желтыми и красными точками.

Чтобы увидеть название станции, наведите на нее мышь.

Затем щелкните, чтобы увидеть метеонаблюдения и метеопрогнозы.

Управление картой: чтобы увеличить масштаб, щелкните зеленые кнопки с черным крестиком; чтобы уменьшить масштаб, щелкните зеленую кнопку с тире; для просмотра соседних карт щелкайте зеленые стрелки.


METAR-TAF: